This is the latest recevied weather packets stored in our database for station/object K3HW. If no packets are shown the sender has not sent any weather packets the latest 10 day(s).
| Time | Temp. | Humidity | Pressure | Rain* | Wind** | Luminosity | Snow |
|---|---|---|---|---|---|---|---|
| 1777691467 | 12.22° C | 64% | 1015.6 hPa | 0 mm | - | 0 W/m² | - |
| 1777691166 | 12.22° C | 63% | 1015.5 hPa | 0 mm | - | 0 W/m² | - |
| 1777690863 | 12.22° C | 62% | 1015.5 hPa | 0 mm | - | 0 W/m² | - |
| 1777690560 | 12.78° C | 61% | 1015.3 hPa | 0 mm | - | 0 W/m² | - |
| 1777690258 | 12.78° C | 60% | 1015.3 hPa | 0 mm | - | 0 W/m² | - |
| 1777689956 | 12.78° C | 61% | 1015.4 hPa | 0 mm | - | 0 W/m² | - |
| 1777689654 | 12.78° C | 61% | 1015.7 hPa | 0 mm | - | 0 W/m² | - |
| 1777689351 | 12.78° C | 60% | 1015.7 hPa | 0 mm | - | 0 W/m² | - |
| 1777689048 | 12.78° C | 61% | 1015.8 hPa | 0 mm | - | 0 W/m² | - |
| 1777688745 | 12.78° C | 60% | 1015.7 hPa | 0 mm | - | 0 W/m² | - |
| 1777688443 | 12.78° C | 59% | 1015.8 hPa | 0 mm | - | 0 W/m² | - |
| 1777688140 | 12.78° C | 58% | 1015.9 hPa | 0 mm | - | 0 W/m² | - |
| 1777687534 | 12.78° C | 59% | 1015.7 hPa | 0 mm | - | 0 W/m² | - |
| 1777674201 | 17.78° C | 43% | 1014.3 hPa | 0 mm | - | 47 W/m² | - |
| 1777673897 | 17.78° C | 44% | 1014.5 hPa | 0 mm | - | 76 W/m² | - |
| 1777672989 | 17.78° C | 38% | 1014.5 hPa | 0 mm | - | 146 W/m² | - |
| 1777671773 | 19.44° C | 37% | 1014.2 hPa | 0 mm | - | 135 W/m² | - |
| 1777671469 | 18.89° C | 40% | 1014.4 hPa | 0 mm | - | 233 W/m² | - |
| 1777671166 | 18.89° C | 39% | 1014.5 hPa | 0 mm | - | 259 W/m² | - |
| 1777670558 | 18.33° C | 38% | 1014.6 hPa | 0 mm | - | 75 W/m² | - |
| 1777670256 | 18.33° C | 39% | 1014.5 hPa | 0 mm | - | 52 W/m² | - |
| 1777669952 | 18.33° C | 44% | 1014.8 hPa | 0 mm | - | 55 W/m² | - |
| 1777669650 | 17.78° C | 42% | 1014.6 hPa | 0 mm | - | 70 W/m² | - |
| 1777669346 | 17.78° C | 41% | 1014.7 hPa | 0 mm | - | 142 W/m² | - |
| 1777669043 | 18.33° C | 43% | 1014.7 hPa | 0 mm | - | 51 W/m² | - |
* Rain latest hour (hover to see other rain measurements)
** Current wind speed in m/s (hover to see current wind gust speed)